Flight Track Log - Related Links

Times and Time Zones

All times are in EDT time to prevent confusion due to time zone crossing. See the UAL4305 flight status page for this flight to view local times or setup timezone preferences in your user account.

Time Position Orientation Groundspeed Altitude Reporting Facility
EDT Latitude Longitude Course Direction KTS MPH feet Rate Location/Type
Sat 07:45:13 PM 30.4592 -87.1892 265° West 161 185 700  Level Jacksonville Center
Sat 07:46:20 PM 30.3989 -87.1792 172° South 204 235 3,400 2,315 Climbing Jacksonville Center
Sat 07:47:20 PM 30.3881 -87.2533 260° West 268 308 5,600 2,327 Climbing Jacksonville Center
Sat 07:48:00 PM 30.4240 -87.5837 263° West  Level FlightAware Approximate
Sat 07:49:00 PM 30.4138 -87.6844 265° West  Level FlightAware Approximate
Sat 07:49:05 PM 30.3836 -87.3878 268° West 271 312 9,800  Level Houston Center
Sat 07:50:00 PM 30.4054 -87.7853 265° West  Level FlightAware Approximate
Sat 07:50:06 PM 30.3819 -87.4819 269° West 293 337 10,900  Level Houston Center
Sat 07:51:08 PM 30.3781 -87.5886 268° West 329 379 12,400 1,548 Climbing Houston Center
Sat 07:52:10 PM 30.3681 -87.7214 265° West 342 394 14,100 1,548 Climbing Houston Center
Sat 07:53:12 PM 30.3478 -87.8281 258° West 339 390 15,600 1,415 Climbing Houston Center
Sat 07:54:13 PM 30.3292 -87.9378 259° West 345 397 17,000 1,220 Climbing Houston Center
Sat 07:55:15 PM 30.3103 -88.0469 259° West 347 399 18,100 976 Climbing Houston Center
Sat 07:56:16 PM 30.2892 -88.1592 258° West 355 409 19,000 976 Climbing Houston Center
Sat 07:57:18 PM 30.2700 -88.2750 259° West 365 420 20,100 1,355 Climbing Houston Center
Sat 07:58:20 PM 30.2489 -88.3892 258° West 364 419 21,800 1,854 Climbing Houston Center
Sat 07:59:21 PM 30.2300 -88.4997 259° West 351 404 23,900 1,707 Climbing Houston Center
Sat 08:00:23 PM 30.2100 -88.6044 258° West 336 387 25,300 1,317 Climbing Houston Center
Sat 08:01:24 PM 30.1858 -88.7358 258° West 347 399 26,600 1,073 Climbing Houston Center
Sat 08:02:26 PM 30.1681 -88.8408 259° West 353 406 27,500 976 Climbing Houston Center
Sat 08:03:27 PM 30.1472 -88.9519 258° West 354 407 28,600 1,024 Climbing Houston Center
Sat 08:04:29 PM 30.1264 -89.0619 258° West 352 405 29,600 968 Climbing Houston Center
Sat 08:05:31 PM 30.1064 -89.1744 258° West 356 410 30,600 1,024 Climbing Houston Center
Sat 08:06:32 PM 30.0858 -89.2864 258° West 355 409 31,700 683 Climbing Houston Center
Sat 08:07:34 PM 30.0603 -89.4253 258° West 364 419 32,000 146 Climbing Houston Center
Sat 08:08:35 PM 30.0372 -89.5483 258° West 382 440 32,000  Level Houston Center
Sat 08:09:37 PM 30.0128 -89.6719 257° West 391 450 32,000  Level Houston Center
Sat 08:10:38 PM 29.9900 -89.7928 258° West 383 441 32,000  Level Houston Center
Sat 08:11:40 PM 29.9664 -89.9144 257° West 385 443 32,000  Level Houston Center
Sat 08:12:42 PM 29.9442 -90.0358 258° West 385 443 32,000 98 Level Houston Center
Sat 08:13:43 PM 29.9211 -90.1547 257° West 381 438 32,200 787 Climbing Houston Center
Sat 08:14:44 PM 29.8994 -90.2686 258° West 368 423 33,600 878 Climbing Houston Center
Sat 08:15:46 PM 29.8775 -90.3761 257° West 349 402 34,000 194 Climbing Houston Center
Sat 08:16:48 PM 29.8567 -90.4872 258° West 352 405 34,000  Level Houston Center
Sat 08:17:49 PM 29.8300 -90.6239 257° West 363 418 34,000  Level Houston Center
Sat 08:18:51 PM 29.8069 -90.7414 257° West 370 426 34,000  Level Houston Center
Sat 08:19:52 PM 29.7833 -90.8583 257° West 375 432 34,000  Level Houston Center
Sat 08:20:54 PM 29.7603 -90.9769 257° West 379 436 34,000  Level Houston Center
Sat 08:21:55 PM 29.7364 -91.0944 257° West 378 435 34,000 -49 Level Houston Center
Sat 08:22:57 PM 29.7139 -91.2122 258° West 377 434 33,900  Descending Houston Center
Sat 08:23:59 PM 29.6883 -91.3350 257° West 393 452 34,000 49 Climbing Houston Center
Sat 08:25:00 PM 29.6558 -91.4553 253° West 396 456 34,000  Level Houston Center
Sat 08:26:02 PM 29.5892 -91.5861 240° Southwest 396 456 34,000  Level Houston Center
Sat 08:27:03 PM 29.5336 -91.6950 240° Southwest 395 455 34,000  Level Houston Center
Sat 08:28:05 PM 29.4847 -91.7911 240° Southwest 395 455 34,000  Level Houston Center
Sat 08:29:06 PM 29.4186 -91.9225 240° Southwest 396 456 34,000  Level Houston Center
Sat 08:30:08 PM 29.3806 -92.0358 249° West 390 449 34,000  Level Houston Center
Sat 08:31:09 PM 29.3872 -92.1589 274° West 388 447 34,000  Level Houston Center
Sat 08:32:11 PM 29.3967 -92.2819 275° West 387 445 34,000  Level Houston Center
Sat 08:33:12 PM 29.4053 -92.4072 275° West 392 451 34,000  Level Houston Center
Sat 08:34:14 PM 29.4144 -92.5322 275° West 392 451 34,000  Level Houston Center
Sat 08:35:15 PM 29.4231 -92.6556 275° West 390 449 34,000  Level Houston Center
Sat 08:36:16 PM 29.4319 -92.7814 275° West 393 452 34,000  Level Houston Center
Sat 08:37:18 PM 29.4406 -92.9069 275° West 393 452 34,000  Level Houston Center
Sat 08:38:19 PM 29.4519 -93.0578 275° West 395 455 34,000 -146 Level Houston Center
Sat 08:39:21 PM 29.4597 -93.1842 274° West 396 456 33,700 -683 Descending Houston Center
Sat 08:40:22 PM 29.4686 -93.3092 275° West 395 455 32,600 -1,721 Descending Houston Center
Sat 08:41:23 PM 29.4767 -93.4367 274° West 398 458 30,200 -2,537 Descending Houston Center
Sat 08:42:25 PM 29.4847 -93.5689 274° West 405 466 27,400 -2,634 Descending Houston Center
Sat 08:43:26 PM 29.4933 -93.6997 274° West 411 473 24,800 -2,361 Descending Houston Center
Sat 08:44:27 PM 29.5017 -93.8278 274° West 406 467 22,600 -2,311 Descending Houston Center
Sat 08:45:28 PM 29.5092 -93.9489 274° West 385 443 20,100 -2,439 Descending Houston Center
Sat 08:46:30 PM 29.5161 -94.0678 274° West 375 432 17,600 -2,146 Descending Houston Center
Sat 08:47:31 PM 29.5225 -94.1753 274° West 353 406 15,700 -2,115 Descending Houston Center
Sat 08:48:32 PM 29.5306 -94.3006 274° West 328 377 13,300 -1,672 Descending Houston Center
Sat 08:49:33 PM 29.5561 -94.3958 287° West 322 371 12,300 -1,024 Descending Houston Center
Sat 08:50:35 PM 29.5939 -94.4883 295° West 323 372 11,200 -1,024 Descending Houston Center
Sat 08:51:36 PM 29.6336 -94.5794 297° West 320 368 10,200 -590 Descending Houston Center
Sat 08:52:37 PM 29.6739 -94.6722 297° West 325 374 10,000 -92 Descending Houston Center
Sat 08:53:47 PM 29.7225 -94.7875 296° West 317 365 10,000 -344 Level Houston Center
Sat 08:54:39 PM 29.7475 -94.8469 296° West 294 338 9,300 -1,274 Descending Houston Center
Sat 08:55:40 PM 29.7800 -94.9244 296° West 274 315 7,600 -1,561 Descending Houston Center
Sat 08:56:42 PM 29.8122 -94.9994 296° West 265 305 6,100 -780 Descending Houston Center
Sat 08:57:43 PM 29.8494 -95.0881 296° West 260 299 6,000 -49 Descending Houston Center
Sat 08:58:44 PM 29.8808 -95.1622 296° West 260 299 6,000 49 Level Houston Center
Sat 08:59:45 PM 29.8989 -95.2406 285° West 262 302 6,100 49 Climbing Houston Center
Sat 09:00:46 PM 29.9008 -95.3206 272° West 254 292 6,100  Level Houston Center
Sat 09:01:47 PM 29.9008 -95.3964 270° West 244 281 6,100 -49 Level Houston Center
Sat 09:02:48 PM 29.9014 -95.4667 271° West 224 258 6,000 -615 Descending Houston Center
Sat 09:03:44 PM 29.9000 -95.5439 269° West 215 247 4,900 -1,026 Descending Houston Center
Sat 09:04:45 PM 29.9039 -95.6083 274° West 204 235 4,000 -443 Descending Houston Center
Sat 09:05:46 PM 29.9631 -95.6133 356° North 226 260 4,000 -469 Level Houston Center
Sat 09:06:53 PM 29.9936 -95.5478 62° Northeast 219 252 3,000 -783 Descending Houston Center
Sat 09:07:41 PM 29.9925 -95.4967 91° East 198 228 2,500 -625 Descending Houston Center

Login

Don't have an account? Register now (free) for customized features, flight alerts, and more!